Time;durP1;ratioP1;P1;durP2;ratioP2;P2;SDS_P1;SDS_P2;PMS_P1;PMS_P2;Temp;Humidity;BMP_temperature;BMP_pressure;BME280_temperature;BME280_humidity;BME280_pressure;Samples;Min_cycle;Max_cycle;Signal;HPM_P1;HPM_P2
2023/09/16 00:00:36;;;;;;;10.87;8.57;;;;;;;;;;5046830;28;20360;-75
2023/09/16 00:03:02;;;;;;;9.97;8.13;;;;;;;;;;5048104;28;20039;-75
2023/09/16 00:05:27;;;;;;;9.95;8.63;;;;;;;;;;5048234;28;20048;-75
2023/09/16 00:07:53;;;;;;;11.10;8.37;;;;;;;;;;5032792;28;20029;-77
2023/09/16 00:10:18;;;;;;;11.63;8.48;;;;;;;;;;5046361;28;20040;-75
2023/09/16 00:12:43;;;;;;;10.83;7.97;;;;;;;;;;5026912;28;20515;-75
2023/09/16 00:15:09;;;;;;;11.45;8.70;;;;;;;;;;5046583;28;20542;-75
2023/09/16 00:17:34;;;;;;;11.48;7.95;;;;;;;;;;5048589;28;20029;-75
2023/09/16 00:19:59;;;;;;;10.50;8.60;;;;;;;;;;5047028;28;20082;-75
2023/09/16 00:22:25;;;;;;;12.27;7.95;;;;;;;;;;5048265;28;20036;-76
2023/09/16 00:24:50;;;;;;;9.23;7.97;;;;;;;;;;5042444;28;20072;-75
2023/09/16 00:27:15;;;;;;;9.95;8.50;;;;;;;;;;5048730;28;20287;-75
2023/09/16 00:29:41;;;;;;;11.37;8.40;;;;;;;;;;5046668;28;20083;-75
2023/09/16 00:32:06;;;;;;;11.90;8.23;;;;;;;;;;5042386;28;20025;-75
2023/09/16 00:34:31;;;;;;;12.17;8.90;;;;;;;;;;5039745;28;20033;-75
2023/09/16 00:36:56;;;;;;;10.50;8.47;;;;;;;;;;5047415;28;20693;-75
2023/09/16 00:39:22;;;;;;;10.27;8.67;;;;;;;;;;5045701;28;20301;-75
2023/09/16 00:41:48;;;;;;;10.32;8.48;;;;;;;;;;5025655;28;20322;-76
2023/09/16 00:44:13;;;;;;;10.05;8.05;;;;;;;;;;5043109;28;20037;-73
2023/09/16 00:46:38;;;;;;;14.17;8.17;;;;;;;;;;5047603;28;20665;-75
2023/09/16 00:49:03;;;;;;;11.02;8.50;;;;;;;;;;5047604;28;20375;-76
2023/09/16 00:51:30;;;;;;;12.83;8.43;;;;;;;;;;5045434;28;20064;-75
2023/09/16 00:53:55;;;;;;;11.45;8.68;;;;;;;;;;5046154;28;20361;-75
2023/09/16 00:56:20;;;;;;;10.40;7.73;;;;;;;;;;5046765;28;20036;-75
2023/09/16 00:58:45;;;;;;;9.47;8.40;;;;;;;;;;5041981;28;20327;-75
2023/09/16 01:01:11;;;;;;;11.97;8.67;;;;;;;;;;5037345;28;20041;-75
2023/09/16 01:03:36;;;;;;;11.35;8.25;;;;;;;;;;5045780;28;20284;-75
2023/09/16 01:06:04;;;;;;;13.77;9.20;;;;;;;;;;5045647;28;20080;-75
2023/09/16 01:08:30;;;;;;;9.88;8.65;;;;;;;;;;5045078;28;20044;-75
2023/09/16 01:10:55;;;;;;;12.85;8.57;;;;;;;;;;5046012;28;20017;-75
2023/09/16 01:13:21;;;;;;;11.10;8.63;;;;;;;;;;5029787;28;20179;-75
2023/09/16 01:15:48;;;;;;;12.43;8.60;;;;;;;;;;5046083;28;20021;-75
2023/09/16 01:18:22;;;;;;;12.68;9.00;;;;;;;;;;5047338;28;20031;-75
2023/09/16 01:20:48;;;;;;;12.70;9.20;;;;;;;;;;5048180;28;20506;-75
2023/09/16 01:23:18;;;;;;;13.50;9.13;;;;;;;;;;5046868;28;20064;-75
2023/09/16 01:25:43;;;;;;;12.10;9.13;;;;;;;;;;5031000;28;20041;-75
2023/09/16 01:28:08;;;;;;;13.23;8.23;;;;;;;;;;5048219;28;20036;-75
2023/09/16 01:30:35;;;;;;;13.98;9.32;;;;;;;;;;5046854;28;20101;-74
2023/09/16 01:33:09;;;;;;;14.45;8.90;;;;;;;;;;5046519;28;20136;-75
2023/09/16 01:35:35;;;;;;;10.38;8.68;;;;;;;;;;5043829;28;20262;-76
2023/09/16 01:38:00;;;;;;;11.75;8.25;;;;;;;;;;5046346;28;20102;-74
2023/09/16 01:40:26;;;;;;;11.43;8.63;;;;;;;;;;5029974;28;20029;-74
2023/09/16 01:42:52;;;;;;;11.67;8.33;;;;;;;;;;5046144;28;20537;-75
2023/09/16 01:45:17;;;;;;;12.85;8.52;;;;;;;;;;5044304;28;20522;-75
2023/09/16 01:47:43;;;;;;;14.15;9.10;;;;;;;;;;5045435;28;20099;-75
2023/09/16 01:50:08;;;;;;;12.10;8.55;;;;;;;;;;5046187;28;20037;-75
2023/09/16 01:52:34;;;;;;;11.80;8.80;;;;;;;;;;5048643;28;20530;-74
2023/09/16 01:54:59;;;;;;;11.52;8.98;;;;;;;;;;5047702;28;20029;-75
2023/09/16 01:57:24;;;;;;;11.18;8.65;;;;;;;;;;5047293;28;20033;-75
2023/09/16 01:59:50;;;;;;;11.48;8.75;;;;;;;;;;5028231;28;20064;-76
2023/09/16 02:02:15;;;;;;;11.32;8.88;;;;;;;;;;5034662;28;20041;-75
2023/09/16 02:04:43;;;;;;;12.15;8.68;;;;;;;;;;5040483;28;20033;-75
2023/09/16 02:07:09;;;;;;;10.40;8.50;;;;;;;;;;5047491;28;20124;-75
2023/09/16 02:09:34;;;;;;;12.52;8.57;;;;;;;;;;5045032;28;20112;-76
2023/09/16 02:12:00;;;;;;;10.93;8.80;;;;;;;;;;5045898;28;20131;-74
2023/09/16 02:14:25;;;;;;;10.17;8.63;;;;;;;;;;5028456;28;20063;-74
2023/09/16 02:16:50;;;;;;;12.93;8.13;;;;;;;;;;5042330;28;20047;-75
2023/09/16 02:19:16;;;;;;;12.47;8.33;;;;;;;;;;5045801;28;20765;-75
2023/09/16 02:21:41;;;;;;;12.00;8.38;;;;;;;;;;5045061;28;20272;-74
2023/09/16 02:24:06;;;;;;;11.25;8.55;;;;;;;;;;5044500;28;20137;-75
2023/09/16 02:26:32;;;;;;;10.35;8.48;;;;;;;;;;5044376;28;20060;-75
2023/09/16 02:28:57;;;;;;;10.77;8.77;;;;;;;;;;5045965;28;20033;-74
2023/09/16 02:31:26;;;;;;;10.65;8.27;;;;;;;;;;5044259;28;20029;-75
2023/09/16 02:33:51;;;;;;;11.50;8.20;;;;;;;;;;5044324;28;20405;-75
2023/09/16 02:36:16;;;;;;;11.40;8.93;;;;;;;;;;5044334;28;20032;-75
2023/09/16 02:38:41;;;;;;;12.33;8.90;;;;;;;;;;5040871;28;20032;-75
2023/09/16 02:41:07;;;;;;;12.10;8.63;;;;;;;;;;5045302;28;20037;-75
2023/09/16 02:43:32;;;;;;;10.67;8.73;;;;;;;;;;5041998;28;20029;-75
2023/09/16 02:45:57;;;;;;;11.88;8.80;;;;;;;;;;5045058;28;20029;-75
2023/09/16 02:48:22;;;;;;;11.47;8.27;;;;;;;;;;5040711;28;20030;-75
2023/09/16 02:50:48;;;;;;;14.57;8.52;;;;;;;;;;5025738;28;20040;-75
2023/09/16 02:53:13;;;;;;;12.13;9.07;;;;;;;;;;5040832;28;20120;-75
2023/09/16 02:55:39;;;;;;;12.15;8.75;;;;;;;;;;5042609;28;20279;-75
2023/09/16 02:58:04;;;;;;;10.87;8.23;;;;;;;;;;5045829;28;20043;-75
2023/09/16 03:00:29;;;;;;;11.38;8.60;;;;;;;;;;5044955;28;20771;-76
2023/09/16 03:02:54;;;;;;;11.35;9.25;;;;;;;;;;5044109;28;20108;-75
2023/09/16 03:05:20;;;;;;;11.23;8.67;;;;;;;;;;5045079;28;20037;-75
2023/09/16 03:07:45;;;;;;;11.57;8.97;;;;;;;;;;5045862;28;20356;-75
2023/09/16 03:10:10;;;;;;;10.75;8.35;;;;;;;;;;5043297;28;20120;-75
2023/09/16 03:12:36;;;;;;;10.68;8.15;;;;;;;;;;5043737;28;20025;-75
2023/09/16 03:15:01;;;;;;;11.47;8.50;;;;;;;;;;5034237;28;20033;-75
2023/09/16 03:17:26;;;;;;;11.33;8.33;;;;;;;;;;5048270;28;20769;-75
2023/09/16 03:19:52;;;;;;;11.02;8.07;;;;;;;;;;5048351;28;20291;-75
2023/09/16 03:22:17;;;;;;;12.10;8.50;;;;;;;;;;5048701;28;20655;-74
2023/09/16 03:24:43;;;;;;;10.13;7.72;;;;;;;;;;5049438;28;20037;-75
2023/09/16 03:27:08;;;;;;;10.52;7.70;;;;;;;;;;5047590;28;20039;-75
2023/09/16 03:29:34;;;;;;;9.77;7.95;;;;;;;;;;5048141;28;20408;-75
2023/09/16 03:31:59;;;;;;;8.80;6.93;;;;;;;;;;5044504;28;20071;-75
2023/09/16 03:34:24;;;;;;;9.87;7.73;;;;;;;;;;5042692;28;20302;-75
2023/09/16 03:36:49;;;;;;;10.63;7.07;;;;;;;;;;5045331;28;20041;-75
2023/09/16 03:39:15;;;;;;;11.30;7.80;;;;;;;;;;5047992;28;20047;-75
2023/09/16 03:41:40;;;;;;;12.65;7.97;;;;;;;;;;5046411;28;20045;-75
2023/09/16 03:44:05;;;;;;;10.23;7.17;;;;;;;;;;5048383;28;20046;-75
2023/09/16 03:46:31;;;;;;;11.03;8.20;;;;;;;;;;5048056;28;20299;-75
2023/09/16 03:48:57;;;;;;;11.20;7.90;;;;;;;;;;5046977;28;20279;-75
2023/09/16 03:51:22;;;;;;;9.98;7.35;;;;;;;;;;5047356;28;20717;-74
2023/09/16 03:53:47;;;;;;;8.83;7.70;;;;;;;;;;5047263;28;20033;-75
2023/09/16 03:56:12;;;;;;;10.97;7.90;;;;;;;;;;5046842;28;20299;-75
2023/09/16 03:58:38;;;;;;;8.95;7.35;;;;;;;;;;5049081;28;20778;-75
2023/09/16 04:01:03;;;;;;;15.60;8.37;;;;;;;;;;5034027;28;20939;-75
2023/09/16 04:03:29;;;;;;;9.50;7.97;;;;;;;;;;5041472;28;20279;-74
2023/09/16 04:05:57;;;;;;;9.55;7.93;;;;;;;;;;5046110;28;20768;-75
2023/09/16 04:08:23;;;;;;;10.27;7.82;;;;;;;;;;5047286;28;20093;-75
2023/09/16 04:10:48;;;;;;;9.73;7.40;;;;;;;;;;5026872;28;20034;-74
2023/09/16 04:13:13;;;;;;;10.90;8.17;;;;;;;;;;5037226;28;20064;-74
2023/09/16 04:15:38;;;;;;;9.43;7.67;;;;;;;;;;5037034;28;20064;-75
2023/09/16 04:18:04;;;;;;;14.37;8.30;;;;;;;;;;5047000;28;20143;-75
2023/09/16 04:20:29;;;;;;;10.98;7.93;;;;;;;;;;5048642;28;20275;-76
2023/09/16 04:22:54;;;;;;;9.93;7.63;;;;;;;;;;5048339;28;20153;-75
2023/09/16 04:25:19;;;;;;;14.63;8.20;;;;;;;;;;5047085;28;20044;-75
2023/09/16 04:27:44;;;;;;;9.83;7.67;;;;;;;;;;5048522;28;20049;-75
2023/09/16 04:30:11;;;;;;;10.70;8.30;;;;;;;;;;5048383;28;20037;-75
2023/09/16 04:32:36;;;;;;;11.82;8.90;;;;;;;;;;5047197;28;20515;-78
2023/09/16 04:35:01;;;;;;;10.33;8.47;;;;;;;;;;5045855;28;20174;-75
2023/09/16 04:37:26;;;;;;;10.80;7.97;;;;;;;;;;5047735;28;20061;-75
2023/09/16 04:39:52;;;;;;;12.88;8.52;;;;;;;;;;5046750;28;20821;-75
2023/09/16 04:42:17;;;;;;;11.98;8.40;;;;;;;;;;5046714;28;20036;-74
2023/09/16 04:44:44;;;;;;;10.68;8.02;;;;;;;;;;5046852;28;20556;-74
2023/09/16 04:47:10;;;;;;;17.48;8.95;;;;;;;;;;5040886;28;20064;-81
2023/09/16 04:49:35;;;;;;;11.65;8.45;;;;;;;;;;5036185;28;20539;-74
2023/09/16 04:52:00;;;;;;;12.73;8.53;;;;;;;;;;5045850;28;20075;-74
2023/09/16 04:54:26;;;;;;;12.03;8.50;;;;;;;;;;5045998;28;20756;-74
2023/09/16 04:56:51;;;;;;;12.10;9.05;;;;;;;;;;5043095;28;20302;-73
2023/09/16 04:59:16;;;;;;;12.85;8.55;;;;;;;;;;5022462;28;20044;-73
2023/09/16 05:01:42;;;;;;;11.83;8.70;;;;;;;;;;5033473;28;20079;-74
2023/09/16 05:04:07;;;;;;;15.18;9.40;;;;;;;;;;5025736;28;20124;-71
2023/09/16 05:06:32;;;;;;;11.97;8.43;;;;;;;;;;5043351;28;20085;-75
2023/09/16 05:08:57;;;;;;;13.10;9.37;;;;;;;;;;5040614;28;20306;-76
2023/09/16 05:11:23;;;;;;;11.50;8.25;;;;;;;;;;5033759;28;20025;-77
2023/09/16 05:13:50;;;;;;;10.80;8.90;;;;;;;;;;5036783;28;20053;-75
2023/09/16 05:16:15;;;;;;;13.05;9.32;;;;;;;;;;5040340;28;20214;-75
2023/09/16 05:18:41;;;;;;;15.33;9.03;;;;;;;;;;5034530;28;20132;-75
2023/09/16 05:21:06;;;;;;;12.27;9.20;;;;;;;;;;5040672;28;20149;-76
2023/09/16 05:23:33;;;;;;;11.70;8.83;;;;;;;;;;5018732;28;20510;-75
2023/09/16 05:25:59;;;;;;;13.00;8.48;;;;;;;;;;5024829;28;20292;-74
2023/09/16 05:28:24;;;;;;;12.50;8.70;;;;;;;;;;5042574;28;20049;-75
2023/09/16 05:30:49;;;;;;;12.47;9.53;;;;;;;;;;5041730;28;20055;-74
2023/09/16 05:33:14;;;;;;;12.47;9.47;;;;;;;;;;5036111;28;20296;-72
2023/09/16 05:35:40;;;;;;;13.80;10.63;;;;;;;;;;5035516;28;20924;-73
2023/09/16 05:38:05;;;;;;;15.13;10.75;;;;;;;;;;5031919;28;20114;-75
2023/09/16 05:40:31;;;;;;;14.68;9.68;;;;;;;;;;5037163;28;20520;-72
2023/09/16 05:42:56;;;;;;;11.45;9.52;;;;;;;;;;5037661;28;20033;-77
2023/09/16 05:45:21;;;;;;;15.00;10.23;;;;;;;;;;5041659;28;20140;-75
2023/09/16 05:47:48;;;;;;;11.75;10.10;;;;;;;;;;5033255;28;20291;-74
2023/09/16 05:50:13;;;;;;;16.80;9.70;;;;;;;;;;5044646;22;20184;-58
2023/09/16 05:52:38;;;;;;;14.88;10.20;;;;;;;;;;5049194;22;20090;-63
2023/09/16 05:55:04;;;;;;;17.50;10.13;;;;;;;;;;5029352;28;20116;-63
2023/09/16 05:57:30;;;;;;;15.23;10.65;;;;;;;;;;5032313;28;20247;-62
2023/09/16 05:59:55;;;;;;;14.15;10.48;;;;;;;;;;5030123;28;20044;-62
2023/09/16 06:02:20;;;;;;;12.60;9.95;;;;;;;;;;5030089;28;20041;-64
2023/09/16 06:04:45;;;;;;;12.38;10.10;;;;;;;;;;5036575;28;20497;-62
2023/09/16 06:07:11;;;;;;;13.50;10.67;;;;;;;;;;5032840;28;20442;-62
2023/09/16 06:09:36;;;;;;;12.93;10.43;;;;;;;;;;5032639;28;20299;-63
2023/09/16 06:12:01;;;;;;;11.77;10.07;;;;;;;;;;5050753;23;20300;-66
2023/09/16 06:14:27;;;;;;;13.10;10.05;;;;;;;;;;5013101;28;20288;-65
2023/09/16 06:16:52;;;;;;;13.75;9.77;;;;;;;;;;5032242;28;20033;-64
2023/09/16 06:19:17;;;;;;;13.70;10.43;;;;;;;;;;5029203;28;20238;-65
2023/09/16 06:21:42;;;;;;;11.30;9.70;;;;;;;;;;5039206;28;20841;-65
2023/09/16 06:24:07;;;;;;;13.40;10.60;;;;;;;;;;5032225;28;20528;-64
2023/09/16 06:26:33;;;;;;;13.03;10.33;;;;;;;;;;5029958;28;20318;-64
2023/09/16 06:28:58;;;;;;;13.87;10.13;;;;;;;;;;5023519;28;20303;-65
2023/09/16 06:31:23;;;;;;;14.83;10.30;;;;;;;;;;5031198;28;20102;-65
2023/09/16 06:33:49;;;;;;;16.03;11.73;;;;;;;;;;5033074;28;20029;-64
2023/09/16 06:36:15;;;;;;;13.68;10.82;;;;;;;;;;5030598;28;20044;-65
2023/09/16 06:38:40;;;;;;;13.73;10.63;;;;;;;;;;5020286;28;20244;-64
2023/09/16 06:41:05;;;;;;;14.33;11.13;;;;;;;;;;5036591;28;20291;-66
2023/09/16 06:43:30;;;;;;;16.03;11.50;;;;;;;;;;5039874;28;20822;-65
2023/09/16 06:45:56;;;;;;;13.98;11.10;;;;;;;;;;5022534;28;20338;-65
2023/09/16 06:48:21;;;;;;;15.13;11.23;;;;;;;;;;5015511;28;20693;-64
2023/09/16 06:50:46;;;;;;;17.47;10.67;;;;;;;;;;5017448;28;20292;-66
2023/09/16 06:53:11;;;;;;;15.18;10.88;;;;;;;;;;5015647;28;20292;-64
2023/09/16 06:55:37;;;;;;;15.95;11.82;;;;;;;;;;5031716;28;20044;-64
2023/09/16 06:58:04;;;;;;;13.73;9.88;;;;;;;;;;5034577;28;22229;-65
2023/09/16 07:00:29;;;;;;;13.65;11.70;;;;;;;;;;5017799;28;20096;-65
2023/09/16 07:02:57;;;;;;;14.95;11.15;;;;;;;;;;5031267;28;20040;-64
2023/09/16 07:05:22;;;;;;;17.20;11.15;;;;;;;;;;5034237;28;20079;-63
2023/09/16 07:07:47;;;;;;;15.45;11.57;;;;;;;;;;5035312;28;20035;-65
2023/09/16 07:10:13;;;;;;;13.98;11.07;;;;;;;;;;5040200;28;20513;-63
2023/09/16 07:12:38;;;;;;;14.07;10.87;;;;;;;;;;5038918;28;20029;-64
2023/09/16 07:15:03;;;;;;;15.63;11.63;;;;;;;;;;5039198;28;20040;-66
2023/09/16 07:17:29;;;;;;;14.98;11.52;;;;;;;;;;5031468;28;20468;-66
2023/09/16 07:19:54;;;;;;;15.27;11.52;;;;;;;;;;5021834;28;20069;-64
2023/09/16 07:22:20;;;;;;;15.30;11.87;;;;;;;;;;5034553;28;20519;-64
2023/09/16 07:24:45;;;;;;;15.32;11.35;;;;;;;;;;5038022;28;20291;-64
2023/09/16 07:27:11;;;;;;;14.85;11.57;;;;;;;;;;5033203;28;20524;-64
2023/09/16 07:29:37;;;;;;;14.50;10.93;;;;;;;;;;5016111;28;20271;-65
2023/09/16 07:32:02;;;;;;;14.43;11.20;;;;;;;;;;5035363;28;20097;-69
2023/09/16 07:34:27;;;;;;;14.45;10.73;;;;;;;;;;5036689;28;20122;-64
2023/09/16 07:36:53;;;;;;;14.77;11.07;;;;;;;;;;5012635;28;20632;-64
2023/09/16 07:39:18;;;;;;;14.93;10.30;;;;;;;;;;5038555;28;20045;-65
2023/09/16 07:41:43;;;;;;;15.93;11.50;;;;;;;;;;5038412;28;20130;-66
2023/09/16 07:44:08;;;;;;;18.67;12.63;;;;;;;;;;5029442;28;20040;-65
2023/09/16 07:46:36;;;;;;;14.13;12.23;;;;;;;;;;5036146;28;20457;-64
2023/09/16 07:49:02;;;;;;;16.75;12.55;;;;;;;;;;5035719;28;20114;-67
2023/09/16 07:51:27;;;;;;;17.08;12.95;;;;;;;;;;5029149;28;20103;-64
2023/09/16 07:53:52;;;;;;;19.17;14.50;;;;;;;;;;5030205;28;20191;-64
2023/09/16 07:56:18;;;;;;;18.00;13.43;;;;;;;;;;5016308;28;20284;-64
2023/09/16 07:58:43;;;;;;;18.05;12.82;;;;;;;;;;5020286;28;20648;-65
2023/09/16 08:01:08;;;;;;;18.83;14.00;;;;;;;;;;5040685;28;20124;-64
2023/09/16 08:03:37;;;;;;;18.90;13.80;;;;;;;;;;5016990;28;20185;-65
2023/09/16 08:06:02;;;;;;;18.48;14.43;;;;;;;;;;5036047;28;20326;-65
2023/09/16 08:08:27;;;;;;;18.70;14.27;;;;;;;;;;5024276;28;20134;-64
2023/09/16 08:10:53;;;;;;;18.03;14.43;;;;;;;;;;5040468;28;20296;-64
2023/09/16 08:13:18;;;;;;;19.05;14.95;;;;;;;;;;5032926;28;20795;-64
2023/09/16 08:15:43;;;;;;;18.60;13.77;;;;;;;;;;5036987;28;20128;-65
2023/09/16 08:18:08;;;;;;;18.70;15.00;;;;;;;;;;5017191;28;20303;-64
2023/09/16 08:20:34;;;;;;;18.60;14.55;;;;;;;;;;5033402;28;20128;-64
2023/09/16 08:22:59;;;;;;;19.73;14.50;;;;;;;;;;5032736;28;20048;-64
2023/09/16 08:25:25;;;;;;;16.92;13.10;;;;;;;;;;5034402;28;20068;-64
2023/09/16 08:27:50;;;;;;;16.83;13.32;;;;;;;;;;5033498;28;20095;-64
2023/09/16 08:30:15;;;;;;;17.77;13.67;;;;;;;;;;5032842;28;20044;-66
2023/09/16 08:32:40;;;;;;;16.90;13.93;;;;;;;;;;5033253;28;20060;-64
2023/09/16 08:35:07;;;;;;;17.23;13.67;;;;;;;;;;5040878;28;20365;-65
2023/09/16 08:37:33;;;;;;;15.60;13.27;;;;;;;;;;5040034;28;20294;-64
2023/09/16 08:39:58;;;;;;;16.73;13.40;;;;;;;;;;5033739;28;20532;-65
2023/09/16 08:42:25;;;;;;;15.75;12.90;;;;;;;;;;5040333;28;20096;-63
2023/09/16 08:44:51;;;;;;;16.80;12.97;;;;;;;;;;5035593;28;20536;-63
2023/09/16 08:47:20;;;;;;;15.50;13.50;;;;;;;;;;5017237;28;20409;-63
2023/09/16 08:49:46;;;;;;;16.20;13.17;;;;;;;;;;5044543;28;20431;-64
2023/09/16 08:52:11;;;;;;;16.33;13.50;;;;;;;;;;5028898;28;20048;-63
2023/09/16 08:54:36;;;;;;;17.02;13.55;;;;;;;;;;5046765;28;20438;-64
2023/09/16 08:57:02;;;;;;;16.90;13.23;;;;;;;;;;5045048;28;20076;-63
2023/09/16 08:59:28;;;;;;;17.73;13.75;;;;;;;;;;5044955;28;20278;-63
2023/09/16 09:01:53;;;;;;;15.02;13.07;;;;;;;;;;5046576;28;20448;-64
2023/09/16 09:04:18;;;;;;;16.47;13.00;;;;;;;;;;5048091;28;20037;-65
2023/09/16 09:06:43;;;;;;;19.17;13.40;;;;;;;;;;5049146;28;20308;-68
2023/09/16 09:09:09;;;;;;;15.33;12.03;;;;;;;;;;5047526;28;20037;-65
2023/09/16 09:11:34;;;;;;;15.38;11.60;;;;;;;;;;5028814;28;20301;-67
2023/09/16 09:13:59;;;;;;;14.60;11.50;;;;;;;;;;5031306;28;20034;-65
2023/09/16 09:16:24;;;;;;;13.27;11.13;;;;;;;;;;5036577;28;20430;-64
2023/09/16 09:18:50;;;;;;;14.00;12.37;;;;;;;;;;5045023;28;20791;-65
2023/09/16 09:21:16;;;;;;;14.50;11.68;;;;;;;;;;5044265;28;20292;-66
2023/09/16 09:23:41;;;;;;;13.65;11.68;;;;;;;;;;5042910;28;20146;-65
2023/09/16 09:26:06;;;;;;;14.73;11.43;;;;;;;;;;5045734;28;20056;-65
2023/09/16 09:28:32;;;;;;;13.43;11.90;;;;;;;;;;5025371;28;20029;-63
2023/09/16 09:30:58;;;;;;;15.43;11.63;;;;;;;;;;5038424;28;20042;-66
2023/09/16 09:33:24;;;;;;;14.25;11.25;;;;;;;;;;5038204;28;20116;-65
2023/09/16 09:35:49;;;;;;;13.18;10.93;;;;;;;;;;5044429;28;20186;-66
2023/09/16 09:38:15;;;;;;;11.50;9.50;;;;;;;;;;5043943;28;20055;-64
2023/09/16 09:40:42;;;;;;;11.23;10.00;;;;;;;;;;5026692;28;20307;-66
2023/09/16 09:43:07;;;;;;;12.63;9.55;;;;;;;;;;5044029;28;20033;-63
2023/09/16 09:45:35;;;;;;;11.57;9.40;;;;;;;;;;5044151;28;20041;-64
2023/09/16 09:48:00;;;;;;;11.98;9.20;;;;;;;;;;5024251;28;20283;-65
2023/09/16 09:50:25;;;;;;;11.83;9.70;;;;;;;;;;5031326;28;20045;-64
2023/09/16 09:52:51;;;;;;;12.47;9.60;;;;;;;;;;5025935;28;20071;-66
2023/09/16 09:55:20;;;;;;;10.15;8.60;;;;;;;;;;5027683;28;20267;-64
2023/09/16 09:57:45;;;;;;;9.95;8.82;;;;;;;;;;5023445;28;20073;-67
2023/09/16 10:00:14;;;;;;;11.15;8.02;;;;;;;;;;5030356;28;20481;-66
2023/09/16 10:02:40;;;;;;;9.02;7.53;;;;;;;;;;5028142;28;20020;-66
2023/09/16 10:05:06;;;;;;;10.10;7.05;;;;;;;;;;5044362;28;20027;-63
2023/09/16 10:07:31;;;;;;;9.18;7.50;;;;;;;;;;5043705;28;20037;-64
2023/09/16 10:09:56;;;;;;;10.13;7.13;;;;;;;;;;5042580;28;20016;-63
2023/09/16 10:12:22;;;;;;;8.83;7.07;;;;;;;;;;5044409;28;20049;-63
2023/09/16 10:14:47;;;;;;;8.48;6.82;;;;;;;;;;5026614;28;20638;-66
2023/09/16 10:17:12;;;;;;;8.48;7.43;;;;;;;;;;5043428;28;20020;-64
2023/09/16 10:19:38;;;;;;;9.97;6.47;;;;;;;;;;5043859;28;20563;-67
2023/09/16 10:22:03;;;;;;;7.75;6.60;;;;;;;;;;5043719;28;20112;-65
2023/09/16 10:24:28;;;;;;;8.75;7.22;;;;;;;;;;5043326;28;20060;-64
2023/09/16 10:26:54;;;;;;;8.68;6.75;;;;;;;;;;5044863;28;20075;-66
2023/09/16 10:29:20;;;;;;;8.88;7.15;;;;;;;;;;5044199;28;20133;-65
2023/09/16 10:31:45;;;;;;;7.27;6.27;;;;;;;;;;5043995;28;20493;-65
2023/09/16 10:34:11;;;;;;;9.20;6.60;;;;;;;;;;5043596;28;20668;-65
2023/09/16 10:36:36;;;;;;;7.70;6.90;;;;;;;;;;5043124;28;20493;-64
2023/09/16 10:39:01;;;;;;;8.43;6.72;;;;;;;;;;5043415;28;20024;-66
2023/09/16 10:41:27;;;;;;;8.82;6.97;;;;;;;;;;5043866;28;20021;-65
2023/09/16 10:43:52;;;;;;;8.83;6.30;;;;;;;;;;5026792;28;20041;-69
2023/09/16 10:46:18;;;;;;;9.13;6.72;;;;;;;;;;5042666;28;20511;-66
2023/09/16 10:48:43;;;;;;;8.95;6.50;;;;;;;;;;5026704;28;20021;-66
2023/09/16 10:51:10;;;;;;;10.38;6.47;;;;;;;;;;5011922;28;20053;-65
2023/09/16 10:53:40;;;;;;;7.90;6.38;;;;;;;;;;5029427;28;20474;-65
2023/09/16 10:56:11;;;;;;;9.82;5.90;;;;;;;;;;5036700;28;20041;-68
2023/09/16 10:58:36;;;;;;;9.52;6.25;;;;;;;;;;5016664;28;20069;-65
2023/09/16 11:01:02;;;;;;;6.97;5.93;;;;;;;;;;5035181;28;20059;-65
2023/09/16 11:03:28;;;;;;;8.63;5.78;;;;;;;;;;5023001;28;20061;-64
2023/09/16 11:05:54;;;;;;;7.15;5.57;;;;;;;;;;5031130;28;20037;-66
2023/09/16 11:08:19;;;;;;;8.40;5.88;;;;;;;;;;5026182;28;20136;-67
2023/09/16 11:10:44;;;;;;;9.20;6.10;;;;;;;;;;5023209;28;20592;-65
2023/09/16 11:13:10;;;;;;;6.90;5.53;;;;;;;;;;5024855;28;20613;-65
2023/09/16 11:15:35;;;;;;;6.73;5.70;;;;;;;;;;5026426;28;20056;-65
2023/09/16 11:18:04;;;;;;;6.97;5.85;;;;;;;;;;5022767;28;20333;-66
2023/09/16 11:20:31;;;;;;;7.30;5.70;;;;;;;;;;5038774;28;20049;-65
2023/09/16 11:22:57;;;;;;;10.07;5.60;;;;;;;;;;5043079;28;20037;-66
2023/09/16 11:25:22;;;;;;;9.30;5.72;;;;;;;;;;5026852;28;20089;-64
2023/09/16 11:27:47;;;;;;;9.53;5.40;;;;;;;;;;5026590;28;20465;-65
2023/09/16 11:30:13;;;;;;;8.13;5.70;;;;;;;;;;5031234;28;20436;-65
2023/09/16 11:32:54;;;;;;;7.90;5.72;;;;;;;;;;5042696;28;20315;-64
2023/09/16 11:35:19;;;;;;;8.10;5.53;;;;;;;;;;5045760;28;20037;-68
2023/09/16 11:37:45;;;;;;;7.75;5.20;;;;;;;;;;5029419;28;20098;-65
2023/09/16 11:40:10;;;;;;;7.13;5.57;;;;;;;;;;5046921;28;20425;-65
2023/09/16 11:42:35;;;;;;;6.43;5.20;;;;;;;;;;5045731;28;20068;-64
2023/09/16 11:45:00;;;;;;;6.30;5.55;;;;;;;;;;5046581;28;20279;-66
2023/09/16 11:47:30;;;;;;;7.05;5.70;;;;;;;;;;5048111;28;20052;-65
2023/09/16 11:49:55;;;;;;;7.78;5.13;;;;;;;;;;5041426;28;20049;-67
2023/09/16 11:52:20;;;;;;;7.53;5.63;;;;;;;;;;5036441;28;20034;-65
2023/09/16 11:54:47;;;;;;;6.87;5.20;;;;;;;;;;5026960;28;20347;-65
2023/09/16 11:57:12;;;;;;;6.60;5.68;;;;;;;;;;5032153;28;20029;-65
2023/09/16 11:59:37;;;;;;;9.07;5.88;;;;;;;;;;5046661;28;20493;-65
2023/09/16 12:02:03;;;;;;;7.03;5.73;;;;;;;;;;5045587;28;20061;-65
2023/09/16 12:04:28;;;;;;;6.93;5.80;;;;;;;;;;5046032;28;20037;-64
2023/09/16 12:06:54;;;;;;;8.95;5.80;;;;;;;;;;5031864;28;20052;-64
2023/09/16 12:09:21;;;;;;;8.25;5.65;;;;;;;;;;5047776;28;20041;-66
2023/09/16 12:11:50;;;;;;;7.72;5.82;;;;;;;;;;5038450;28;20069;-65
2023/09/16 12:14:15;;;;;;;9.60;6.10;;;;;;;;;;5026422;28;20030;-65
2023/09/16 12:16:40;;;;;;;8.77;6.53;;;;;;;;;;5027856;28;20822;-66
2023/09/16 12:19:05;;;;;;;7.70;6.00;;;;;;;;;;5025691;28;20371;-65
2023/09/16 12:21:31;;;;;;;7.73;6.00;;;;;;;;;;5037364;28;20841;-65
2023/09/16 12:23:56;;;;;;;8.57;6.03;;;;;;;;;;5029462;28;20472;-65
2023/09/16 12:26:21;;;;;;;8.37;6.10;;;;;;;;;;5029425;28;20471;-64
2023/09/16 12:28:47;;;;;;;6.63;5.50;;;;;;;;;;5045232;28;20083;-65
2023/09/16 12:31:12;;;;;;;7.53;6.03;;;;;;;;;;5034613;28;20025;-65
2023/09/16 12:33:45;;;;;;;7.53;5.55;;;;;;;;;;5045641;28;20033;-66
2023/09/16 12:36:15;;;;;;;7.55;5.10;;;;;;;;;;5043917;28;20025;-65
2023/09/16 12:38:40;;;;;;;6.78;5.28;;;;;;;;;;5045348;28;20368;-65
2023/09/16 12:41:07;;;;;;;6.77;5.37;;;;;;;;;;5045909;28;20394;-67
2023/09/16 12:43:32;;;;;;;7.32;5.13;;;;;;;;;;5045493;28;20268;-65
2023/09/16 12:45:58;;;;;;;8.10;5.57;;;;;;;;;;5035443;28;20562;-66
2023/09/16 12:48:23;;;;;;;7.40;4.78;;;;;;;;;;5036415;28;20295;-66
2023/09/16 12:50:48;;;;;;;7.35;5.55;;;;;;;;;;5034679;28;20041;-67
2023/09/16 12:53:14;;;;;;;8.13;5.53;;;;;;;;;;5045472;28;20103;-65
2023/09/16 12:55:39;;;;;;;8.15;4.97;;;;;;;;;;5045612;28;20048;-66
2023/09/16 12:58:06;;;;;;;8.95;5.32;;;;;;;;;;5046671;28;20642;-65
2023/09/16 13:00:31;;;;;;;7.93;4.88;;;;;;;;;;5045241;28;20040;-65
2023/09/16 13:03:00;;;;;;;6.72;4.88;;;;;;;;;;5043601;28;20497;-65
2023/09/16 13:05:29;;;;;;;9.20;5.35;;;;;;;;;;5045359;28;20037;-65
2023/09/16 13:07:55;;;;;;;5.80;5.18;;;;;;;;;;5032581;28;20037;-65
2023/09/16 13:10:20;;;;;;;8.48;4.90;;;;;;;;;;5027070;28;20048;-64
2023/09/16 13:12:47;;;;;;;7.38;4.63;;;;;;;;;;5044654;28;20041;-64
2023/09/16 13:15:13;;;;;;;6.32;5.18;;;;;;;;;;5044078;28;20041;-66
2023/09/16 13:17:42;;;;;;;8.27;5.00;;;;;;;;;;5027658;28;20056;-65
2023/09/16 13:20:13;;;;;;;6.72;5.47;;;;;;;;;;5045056;28;20041;-65
2023/09/16 13:22:39;;;;;;;6.20;5.03;;;;;;;;;;5044190;28;20033;-65
2023/09/16 13:25:28;;;;;;;6.95;5.03;;;;;;;;;;5027078;28;20478;-66
2023/09/16 13:27:54;;;;;;;7.80;4.50;;;;;;;;;;5022844;28;20052;-65
2023/09/16 13:30:19;;;;;;;6.47;4.40;;;;;;;;;;5024928;28;20581;-65
2023/09/16 13:32:54;;;;;;;6.13;4.88;;;;;;;;;;5040597;28;20161;-68
2023/09/16 13:35:19;;;;;;;5.70;4.78;;;;;;;;;;5044610;28;20040;-65
2023/09/16 13:37:45;;;;;;;6.95;5.10;;;;;;;;;;5044028;28;20028;-65
2023/09/16 13:40:12;;;;;;;6.17;4.53;;;;;;;;;;5045691;28;20134;-66
2023/09/16 13:42:37;;;;;;;8.43;4.80;;;;;;;;;;5028126;28;20025;-64
2023/09/16 13:45:02;;;;;;;6.40;4.80;;;;;;;;;;5042917;28;20433;-67
2023/09/16 13:47:28;;;;;;;5.55;4.45;;;;;;;;;;5044958;28;20386;-64
2023/09/16 13:49:53;;;;;;;7.47;4.57;;;;;;;;;;5044408;28;20029;-64
2023/09/16 13:52:18;;;;;;;7.57;5.40;;;;;;;;;;5022278;28;20271;-63
2023/09/16 13:54:43;;;;;;;6.90;4.43;;;;;;;;;;5044568;28;20875;-65
2023/09/16 13:57:09;;;;;;;5.60;5.00;;;;;;;;;;5044944;28;20361;-65
2023/09/16 13:59:34;;;;;;;6.72;4.72;;;;;;;;;;5044617;28;20271;-65
2023/09/16 14:01:59;;;;;;;6.63;4.77;;;;;;;;;;5044967;28;20013;-64
2023/09/16 14:04:25;;;;;;;6.70;4.93;;;;;;;;;;5024673;28;20087;-64
2023/09/16 14:06:50;;;;;;;6.50;4.80;;;;;;;;;;5026526;28;20177;-64
2023/09/16 14:09:15;;;;;;;6.73;4.27;;;;;;;;;;5043682;28;20755;-63
2023/09/16 14:11:40;;;;;;;7.80;4.83;;;;;;;;;;5027479;28;20276;-65
2023/09/16 14:14:06;;;;;;;5.30;4.47;;;;;;;;;;5043791;28;20059;-65
2023/09/16 14:16:32;;;;;;;7.23;5.20;;;;;;;;;;5044333;28;20771;-65
2023/09/16 14:18:58;;;;;;;5.80;4.55;;;;;;;;;;5045474;28;20056;-63
2023/09/16 14:21:23;;;;;;;6.40;4.53;;;;;;;;;;5043733;28;20082;-65